createdAt,value
2019-06-08T00:02:16.636Z,1.20
2019-06-08T00:04:44.657Z,1.30
2019-06-08T00:07:13.083Z,1.75
2019-06-08T00:09:41.074Z,1.20
2019-06-08T00:12:08.952Z,1.40
2019-06-08T00:14:36.873Z,1.07
2019-06-08T00:17:04.748Z,1.30
2019-06-08T00:19:32.714Z,1.40
2019-06-08T00:22:00.717Z,1.10
2019-06-08T00:24:28.680Z,1.02
2019-06-08T00:26:56.575Z,1.07
2019-06-08T00:29:24.664Z,0.90
2019-06-08T00:31:52.643Z,1.12
2019-06-08T00:34:20.711Z,1.10
2019-06-08T00:36:48.760Z,1.10
2019-06-08T00:39:16.796Z,1.22
2019-06-08T00:41:44.709Z,1.02
2019-06-08T00:44:12.698Z,1.00
2019-06-08T00:46:40.714Z,0.90
2019-06-08T00:49:08.748Z,0.98
2019-06-08T00:51:36.620Z,1.30
2019-06-08T00:54:04.484Z,0.88
2019-06-08T00:56:32.457Z,1.17
2019-06-08T00:59:00.450Z,0.90
2019-06-08T01:01:28.638Z,1.02
2019-06-08T01:03:56.621Z,1.00
2019-06-08T01:06:25.010Z,1.17
2019-06-08T01:08:52.956Z,1.07
2019-06-08T01:11:21.045Z,1.10
2019-06-08T01:13:51.774Z,0.98
2019-06-08T01:16:20.881Z,1.27
2019-06-08T01:18:49.061Z,1.00
2019-06-08T01:21:16.992Z,1.10
2019-06-08T01:23:44.890Z,1.20
2019-06-08T01:26:12.773Z,1.02
2019-06-08T01:28:40.657Z,1.00
2019-06-08T01:31:08.661Z,0.98
2019-06-08T01:33:36.598Z,1.10
2019-06-08T01:36:04.586Z,0.90
2019-06-08T01:38:32.515Z,1.32
2019-06-08T01:41:00.440Z,1.20
2019-06-08T01:43:29.594Z,1.22
2019-06-08T01:45:57.704Z,1.30
2019-06-08T01:48:26.299Z,1.40
2019-06-08T01:50:54.242Z,1.00
2019-06-08T01:53:22.782Z,1.22
2019-06-08T01:55:50.877Z,1.15
2019-06-08T01:58:18.760Z,1.17
2019-06-08T02:00:46.701Z,1.07
2019-06-08T02:03:14.662Z,1.30
2019-06-08T02:05:42.620Z,1.67
2019-06-08T02:08:10.590Z,1.15
2019-06-08T02:10:38.596Z,1.15
2019-06-08T02:13:08.833Z,1.32
2019-06-08T02:15:36.606Z,1.47
2019-06-08T02:18:04.586Z,1.42
2019-06-08T02:20:33.032Z,1.35
2019-06-08T02:23:01.080Z,1.75
2019-06-08T02:25:29.370Z,1.50
2019-06-08T02:27:57.447Z,1.20
2019-06-08T02:30:25.318Z,1.20
2019-06-08T02:32:53.317Z,1.30
2019-06-08T02:35:21.207Z,1.30
2019-06-08T02:37:49.225Z,1.60
2019-06-08T02:40:17.244Z,1.90
2019-06-08T02:42:45.299Z,1.98
2019-06-08T02:45:13.191Z,1.50
2019-06-08T02:47:43.062Z,1.50
2019-06-08T02:50:10.795Z,1.72
2019-06-08T02:52:40.580Z,1.50
2019-06-08T02:55:08.378Z,1.60
2019-06-08T02:57:37.601Z,1.57
2019-06-08T03:00:05.903Z,1.70
2019-06-08T03:02:34.499Z,1.75
2019-06-08T03:05:22.459Z,1.87
2019-06-08T03:07:50.430Z,2.00
2019-06-08T03:10:18.395Z,1.47
2019-06-08T03:12:46.307Z,2.17
2019-06-08T03:15:14.200Z,1.52
2019-06-08T03:17:42.214Z,2.15
2019-06-08T03:20:10.113Z,1.82
2019-06-08T03:22:39.514Z,1.72
2019-06-08T03:25:07.781Z,1.70
2019-06-08T03:27:37.284Z,1.92
2019-06-08T03:30:16.461Z,1.95
2019-06-08T03:32:42.092Z,1.60
2019-06-08T03:35:04.819Z,1.98
2019-06-08T03:37:33.287Z,1.52
2019-06-08T03:40:01.461Z,2.42
2019-06-08T03:42:29.421Z,1.92
2019-06-08T03:44:57.360Z,1.80
2019-06-08T03:47:25.402Z,1.80
2019-06-08T03:49:57.431Z,1.90
2019-06-08T03:52:23.162Z,1.95
2019-06-08T03:54:51.174Z,1.90
2019-06-08T03:57:19.063Z,1.95
2019-06-08T03:59:47.808Z,2.00
2019-06-08T04:02:16.002Z,1.60
2019-06-08T04:04:43.952Z,1.92
2019-06-08T04:07:13.758Z,2.10
2019-06-08T04:09:41.752Z,1.90
2019-06-08T04:12:09.708Z,2.30
2019-06-08T04:14:37.912Z,2.12
2019-06-08T04:17:05.957Z,2.27
2019-06-08T04:19:33.838Z,1.85
2019-06-08T04:22:01.825Z,2.20
2019-06-08T04:24:29.869Z,1.95
2019-06-08T04:26:57.859Z,2.05
2019-06-08T04:29:26.409Z,2.00
2019-06-08T04:31:54.411Z,2.30
2019-06-08T04:34:22.433Z,2.05
2019-06-08T04:36:50.486Z,1.60
2019-06-08T04:39:18.646Z,2.20
2019-06-08T04:41:47.179Z,2.00
2019-06-08T04:44:15.308Z,1.85
2019-06-08T04:46:45.049Z,2.10
2019-06-08T04:49:12.914Z,2.25
2019-06-08T04:51:41.200Z,2.12
2019-06-08T04:54:14.269Z,1.70
2019-06-08T04:56:40.925Z,2.25
2019-06-08T04:59:08.860Z,2.40
2019-06-08T05:01:36.835Z,1.55
2019-06-08T05:04:04.746Z,2.42
2019-06-08T05:06:32.786Z,2.65
2019-06-08T05:09:00.774Z,1.85
2019-06-08T05:11:28.653Z,1.95
2019-06-08T05:13:56.593Z,2.02
2019-06-08T05:16:24.454Z,1.70
2019-06-08T05:18:52.346Z,2.12
2019-06-08T05:21:20.232Z,2.10
2019-06-08T05:23:55.106Z,2.20
2019-06-08T05:26:17.723Z,2.05
2019-06-08T05:28:45.642Z,1.80
2019-06-08T05:31:13.583Z,2.33
2019-06-08T05:33:41.488Z,2.20
2019-06-08T05:36:09.340Z,2.08
2019-06-08T05:38:37.251Z,1.98
2019-06-08T05:41:05.200Z,1.95
2019-06-08T05:43:33.181Z,2.08
2019-06-08T05:46:01.154Z,1.95
2019-06-08T05:48:29.055Z,1.72
2019-06-08T05:51:03.941Z,2.60
2019-06-08T05:53:26.641Z,1.92
2019-06-08T05:55:54.541Z,2.08
2019-06-08T05:58:22.535Z,2.58
2019-06-08T06:00:50.758Z,2.02
2019-06-08T06:03:18.809Z,2.20
2019-06-08T06:05:46.793Z,2.17
2019-06-08T06:08:18.787Z,2.58
2019-06-08T06:10:44.836Z,2.50
2019-06-08T06:13:12.914Z,2.27
2019-06-08T06:15:41.001Z,2.20
2019-06-08T06:18:09.061Z,2.30
2019-06-08T06:20:36.993Z,2.05
2019-06-08T06:23:04.881Z,2.00
2019-06-08T06:25:32.774Z,2.10
2019-06-08T06:28:00.759Z,1.95
2019-06-08T06:30:28.724Z,2.33
2019-06-08T06:32:56.601Z,1.92
2019-06-08T06:35:24.456Z,2.40
2019-06-08T06:37:52.418Z,2.10
2019-06-08T06:40:20.432Z,2.72
2019-06-08T06:42:48.453Z,2.17
2019-06-08T06:45:16.386Z,2.30
2019-06-08T06:47:44.264Z,2.20
2019-06-08T06:50:12.279Z,2.25
2019-06-08T06:52:40.222Z,2.40
2019-06-08T06:55:08.194Z,2.12
2019-06-08T06:57:36.853Z,2.60
2019-06-08T07:00:04.950Z,2.37
2019-06-08T07:02:32.946Z,2.35
2019-06-08T07:05:00.999Z,2.42
2019-06-08T07:07:28.875Z,2.30
2019-06-08T07:09:56.773Z,2.60
2019-06-08T07:12:24.676Z,2.33
2019-06-08T07:14:53.274Z,2.25
2019-06-08T07:17:21.333Z,2.10
2019-06-08T07:19:50.405Z,2.45
2019-06-08T07:22:18.429Z,2.12
2019-06-08T07:24:46.802Z,2.45
2019-06-08T07:27:14.874Z,2.42
2019-06-08T07:29:42.742Z,2.37
2019-06-08T07:32:10.657Z,2.65
2019-06-08T07:34:41.145Z,2.05
2019-06-08T07:37:08.222Z,2.25
2019-06-08T07:39:36.181Z,2.10
2019-06-08T07:42:04.088Z,2.50
2019-06-08T07:44:32.062Z,2.85
2019-06-08T07:47:00.170Z,2.75
2019-06-08T07:49:28.213Z,2.70
2019-06-08T07:52:07.151Z,2.87
2019-06-08T07:54:25.869Z,2.30
2019-06-08T07:56:54.936Z,2.85
2019-06-08T07:59:23.095Z,2.37
2019-06-08T08:01:51.884Z,2.50
2019-06-08T08:04:19.953Z,2.50
2019-06-08T08:06:48.345Z,2.83
2019-06-08T08:09:16.418Z,3.12
2019-06-08T08:11:44.452Z,2.80
2019-06-08T08:14:12.485Z,2.52
2019-06-08T08:16:40.451Z,2.37
2019-06-08T08:19:08.330Z,2.30
2019-06-08T08:21:38.022Z,2.47
2019-06-08T08:24:07.294Z,2.33
2019-06-08T08:26:35.358Z,2.10
2019-06-08T08:29:03.648Z,2.65
2019-06-08T08:31:31.781Z,2.60
2019-06-08T08:34:05.354Z,2.45
2019-06-08T08:36:32.569Z,2.42
2019-06-08T08:39:01.016Z,2.20
2019-06-08T08:41:28.700Z,2.52
2019-06-08T08:43:58.962Z,2.00
2019-06-08T08:46:28.509Z,2.55
2019-06-08T08:49:04.677Z,2.70
2019-06-08T08:51:27.913Z,2.37
2019-06-08T08:54:01.169Z,2.20
2019-06-08T08:56:24.987Z,2.90
2019-06-08T08:58:52.880Z,2.52
2019-06-08T09:01:20.886Z,2.20
2019-06-08T09:03:51.850Z,2.47
2019-06-08T09:06:18.565Z,2.35
2019-06-08T09:08:48.403Z,2.08
2019-06-08T09:11:17.564Z,2.10
2019-06-08T09:13:45.756Z,2.08
2019-06-08T09:16:13.714Z,2.40
2019-06-08T09:18:41.612Z,2.25
2019-06-08T09:21:09.501Z,2.45
2019-06-08T09:23:37.899Z,2.45
2019-06-08T09:26:11.731Z,2.40
2019-06-08T09:28:35.675Z,2.52
2019-06-08T09:31:04.159Z,2.40
2019-06-08T09:33:32.265Z,2.10
2019-06-08T09:36:02.765Z,2.47
2019-06-08T09:38:29.868Z,2.22
2019-06-08T09:41:01.231Z,2.37
2019-06-08T09:43:28.932Z,2.10
2019-06-08T09:46:00.534Z,1.95
2019-06-08T09:48:28.874Z,2.00
2019-06-08T09:50:59.438Z,2.33
2019-06-08T09:53:36.407Z,2.10
2019-06-08T09:55:57.579Z,1.98
2019-06-08T09:58:25.370Z,2.00
2019-06-08T10:00:54.583Z,1.80
2019-06-08T10:03:23.000Z,2.00
2019-06-08T10:05:50.965Z,1.82
2019-06-08T10:08:20.798Z,1.55
2019-06-08T10:10:48.564Z,1.80
2019-06-08T10:13:18.958Z,1.85
2019-06-08T10:15:48.649Z,2.10
2019-06-08T10:18:17.637Z,1.67
2019-06-08T10:20:48.002Z,1.82
2019-06-08T10:23:29.855Z,1.77
2019-06-08T10:25:45.023Z,1.75
2019-06-08T10:28:15.931Z,2.62
2019-06-08T10:30:42.755Z,2.12
2019-06-08T10:33:10.737Z,46.70
2019-06-08T10:35:38.648Z,781.00
2019-06-08T10:38:11.277Z,471.37
2019-06-08T10:40:38.399Z,573.30
2019-06-08T10:43:09.382Z,331.07
2019-06-08T10:45:36.279Z,123.13
2019-06-08T10:48:04.864Z,173.62
2019-06-08T10:50:33.973Z,37.75
2019-06-08T10:53:04.085Z,8.40
2019-06-08T10:55:31.617Z,3.65
2019-06-08T10:58:00.154Z,4.95
2019-06-08T11:00:28.546Z,5.30
2019-06-08T11:02:58.984Z,4.28
2019-06-08T11:05:28.043Z,2.95
2019-06-08T11:07:58.828Z,3.05
2019-06-08T11:10:25.616Z,5.40
2019-06-08T11:12:53.671Z,2.12
2019-06-08T11:15:21.637Z,2.58
2019-06-08T11:17:49.625Z,2.20
2019-06-08T11:20:17.491Z,3.95
2019-06-08T11:22:49.768Z,1.90
2019-06-08T11:25:16.695Z,48.90
2019-06-08T11:27:44.714Z,250.80
2019-06-08T11:30:23.600Z,914.63
2019-06-08T11:32:44.112Z,444.05
2019-06-08T11:35:12.709Z,92.20
2019-06-08T11:37:41.189Z,67.97
2019-06-08T11:40:12.226Z,21.90
2019-06-08T11:42:39.053Z,11.53
2019-06-08T11:45:09.455Z,5.92
2019-06-08T11:47:38.928Z,9.05
2019-06-08T11:50:07.256Z,7.05
2019-06-08T11:52:38.183Z,4.72
2019-06-08T11:55:07.470Z,7.25
2019-06-08T11:57:37.404Z,3.87
2019-06-08T12:00:11.910Z,4.53
2019-06-08T12:02:34.770Z,2.80
2019-06-08T12:05:03.745Z,4.42
2019-06-08T12:07:31.804Z,9.63
2019-06-08T12:09:59.874Z,8.15
2019-06-08T12:12:28.280Z,4.10
2019-06-08T12:14:58.306Z,2.60
2019-06-08T12:17:27.574Z,1.87
2019-06-08T12:19:57.718Z,1.75
2019-06-08T12:22:25.550Z,2.05
2019-06-08T12:24:53.551Z,1.80
2019-06-08T12:27:29.909Z,2.35
2019-06-08T12:29:51.076Z,1.95
2019-06-08T12:32:19.073Z,2.12
2019-06-08T12:34:46.975Z,2.83
2019-06-08T12:37:19.608Z,1.50
2019-06-08T12:39:44.686Z,1.50
2019-06-08T12:42:19.544Z,1.52
2019-06-08T12:44:43.760Z,1.45
2019-06-08T12:47:15.870Z,1.98
2019-06-08T12:49:41.902Z,7.05
2019-06-08T12:52:12.234Z,40.20
2019-06-08T12:54:39.616Z,30.40
2019-06-08T12:57:11.910Z,39.80
2019-06-08T12:59:38.499Z,78.28
2019-06-08T13:02:08.767Z,55.35
2019-06-08T13:04:38.369Z,76.40
2019-06-08T13:07:08.385Z,139.28
2019-06-08T13:09:38.197Z,5.10
2019-06-08T13:12:08.021Z,76.02
2019-06-08T13:14:35.465Z,6.03
2019-06-08T13:17:03.483Z,3.42
2019-06-08T13:19:31.515Z,3.87
2019-06-08T13:21:59.606Z,25.20
2019-06-08T13:24:28.548Z,31.70
2019-06-08T13:26:57.903Z,3.12
2019-06-08T13:29:28.074Z,6.85
2019-06-08T13:31:55.793Z,12.53
2019-06-08T13:34:24.500Z,7.17
2019-06-08T13:36:52.681Z,4.05
2019-06-08T13:39:22.781Z,18.02
2019-06-08T13:41:52.142Z,3.87
2019-06-08T13:44:20.372Z,9.48
2019-06-08T13:46:48.300Z,4.15
2019-06-08T13:49:21.735Z,4.42
2019-06-08T13:51:47.947Z,2.77
2019-06-08T13:54:16.809Z,3.50
2019-06-08T13:56:45.436Z,3.60
2019-06-08T13:59:14.262Z,14.98
2019-06-08T14:01:43.006Z,6.80
2019-06-08T14:04:11.024Z,7.10
2019-06-08T14:06:39.096Z,3.30
2019-06-08T14:09:08.273Z,124.42
2019-06-08T14:11:36.469Z,15.72
2019-06-08T14:14:04.461Z,9.65
2019-06-08T14:16:32.471Z,7.28
2019-06-08T14:19:00.546Z,21.82
2019-06-08T14:21:37.380Z,212.53
2019-06-08T14:23:58.746Z,19.50
2019-06-08T14:26:26.952Z,27.65
2019-06-08T14:28:54.872Z,26.37
2019-06-08T14:31:23.971Z,40.25
2019-06-08T14:33:52.553Z,101.12
2019-06-08T14:36:22.684Z,14.35
2019-06-08T14:38:50.345Z,66.15
2019-06-08T14:41:19.796Z,36.08
2019-06-08T14:43:50.722Z,5.67
2019-06-08T14:46:18.484Z,3.25
2019-06-08T14:48:47.485Z,2.27
2019-06-08T14:51:15.488Z,10.65
2019-06-08T14:53:43.700Z,10.75
2019-06-08T14:56:11.589Z,109.15
2019-06-08T14:58:39.629Z,6.40
2019-06-08T15:01:08.041Z,4.03
2019-06-08T15:03:37.895Z,17.90
2019-06-08T15:06:08.141Z,14.85
2019-06-08T15:08:35.636Z,3.00
2019-06-08T15:11:03.714Z,11.40
2019-06-08T15:13:31.776Z,8.53
2019-06-08T15:16:00.711Z,3.00
2019-06-08T15:18:30.476Z,4.05
2019-06-08T15:20:58.807Z,3.22
2019-06-08T15:23:30.900Z,4.03
2019-06-08T15:25:58.255Z,15.63
2019-06-08T15:28:29.287Z,2.47
2019-06-08T15:30:59.850Z,2.40
2019-06-08T15:33:26.949Z,3.12
2019-06-08T15:35:57.483Z,2.35
2019-06-08T15:38:25.346Z,2.55
2019-06-08T15:40:53.350Z,2.22
2019-06-08T15:43:21.779Z,1.62
2019-06-08T15:45:51.355Z,1.32
2019-06-08T15:48:20.452Z,9.58
2019-06-08T15:50:49.409Z,4.75
2019-06-08T15:53:18.385Z,6.80
2019-06-08T15:55:51.266Z,10.20
2019-06-08T15:58:18.191Z,9.58
2019-06-08T16:00:45.952Z,3.47
2019-06-08T16:03:13.850Z,3.22
2019-06-08T16:05:41.738Z,1.85
2019-06-08T16:08:09.720Z,8.85
2019-06-08T16:10:37.786Z,3.30
2019-06-08T16:13:05.750Z,2.30
2019-06-08T16:15:35.234Z,2.00
2019-06-08T16:18:03.358Z,1.37
2019-06-08T16:20:31.625Z,1.25
2019-06-08T16:22:59.633Z,1.32
2019-06-08T16:25:46.830Z,1.32
2019-06-08T16:28:14.803Z,1.37
2019-06-08T16:30:42.775Z,1.35
2019-06-08T16:33:10.760Z,1.35
2019-06-08T16:35:39.961Z,1.40
2019-06-08T16:38:08.059Z,1.40
2019-06-08T16:40:36.341Z,1.37
2019-06-08T16:43:04.515Z,1.57
2019-06-08T16:45:33.151Z,1.42
2019-06-08T16:48:01.213Z,1.60
2019-06-08T16:50:30.203Z,1.67
2019-06-08T16:52:58.221Z,1.70
2019-06-08T16:55:26.124Z,1.70
2019-06-08T16:57:54.129Z,1.50
2019-06-08T17:00:31.256Z,1.62
2019-06-08T17:02:51.819Z,1.30
2019-06-08T17:05:19.756Z,1.50
2019-06-08T17:07:47.759Z,4.90
2019-06-08T17:10:15.829Z,2.33
2019-06-08T17:12:43.905Z,2.62
2019-06-08T17:15:11.893Z,1.70
2019-06-08T17:17:40.522Z,1.60
2019-06-08T17:20:08.630Z,2.00
2019-06-08T17:22:36.903Z,1.40
2019-06-08T17:25:08.118Z,1.30
2019-06-08T17:27:34.902Z,1.40
2019-06-08T17:30:08.281Z,1.50
2019-06-08T17:32:33.947Z,2.22
2019-06-08T17:35:02.249Z,1.50
2019-06-08T17:37:31.563Z,1.40
2019-06-08T17:39:59.679Z,1.40
2019-06-08T17:42:29.778Z,1.60
2019-06-08T17:44:57.743Z,1.80
2019-06-08T17:47:25.670Z,1.45
2019-06-08T17:49:53.940Z,1.85
2019-06-08T17:52:21.863Z,2.37
2019-06-08T17:54:49.813Z,2.10
2019-06-08T17:57:17.724Z,1.65
2019-06-08T17:59:45.674Z,1.80
2019-06-08T18:02:18.267Z,2.10
2019-06-08T18:04:44.380Z,2.02
2019-06-08T18:07:12.531Z,1.80
2019-06-08T18:09:41.899Z,2.08
2019-06-08T18:12:10.363Z,2.00
2019-06-08T18:14:40.237Z,1.80
2019-06-08T18:17:08.086Z,1.95
2019-06-08T18:19:39.792Z,2.12
2019-06-08T18:22:14.752Z,2.00
2019-06-08T18:24:37.881Z,2.90
2019-06-08T18:27:07.647Z,2.27
2019-06-08T18:29:34.864Z,2.10
2019-06-08T18:32:02.740Z,1.90
2019-06-08T18:34:30.738Z,1.67
2019-06-08T18:36:58.821Z,1.90
2019-06-08T18:39:27.248Z,1.95
2019-06-08T18:41:58.200Z,2.17
2019-06-08T18:44:24.989Z,1.90
2019-06-08T18:46:52.995Z,1.70
2019-06-08T18:49:20.944Z,1.50
2019-06-08T18:51:49.181Z,2.40
2019-06-08T18:54:18.802Z,1.80
2019-06-08T18:56:48.818Z,1.77
2019-06-08T18:59:18.302Z,1.87
2019-06-08T19:01:49.483Z,1.60
2019-06-08T19:04:15.967Z,1.90
2019-06-08T19:06:45.085Z,1.80
2019-06-08T19:09:13.155Z,1.90
2019-06-08T19:11:42.213Z,1.72
2019-06-08T19:14:11.517Z,1.70
2019-06-08T19:16:43.599Z,1.55
2019-06-08T19:19:09.180Z,1.90
2019-06-08T19:21:38.891Z,1.98
2019-06-08T19:24:09.581Z,1.90
2019-06-08T19:26:39.362Z,1.90
2019-06-08T19:29:07.708Z,1.62
2019-06-08T19:31:38.612Z,2.10
2019-06-08T19:34:07.506Z,1.80
2019-06-08T19:36:34.876Z,2.00
2019-06-08T19:39:02.867Z,1.80
2019-06-08T19:41:30.765Z,2.00
2019-06-08T19:43:58.724Z,2.33
2019-06-08T19:46:27.147Z,1.80
2019-06-08T19:48:56.425Z,1.75
2019-06-08T19:51:24.891Z,1.90
2019-06-08T19:53:54.948Z,1.98
2019-06-08T19:56:22.477Z,2.17
2019-06-08T19:58:58.891Z,2.75
2019-06-08T20:01:20.107Z,2.75
2019-06-08T20:03:49.029Z,2.72
2019-06-08T20:06:17.542Z,2.20
2019-06-08T20:08:49.740Z,2.37
2019-06-08T20:11:17.291Z,3.58
2019-06-08T20:13:45.466Z,4.10
2019-06-08T20:16:13.441Z,4.53
2019-06-08T20:18:41.545Z,4.22
2019-06-08T20:21:10.276Z,3.92
2019-06-08T20:23:38.423Z,4.47
2019-06-08T20:26:08.377Z,4.17
2019-06-08T20:28:37.303Z,3.85
2019-06-08T20:31:07.508Z,3.40
2019-06-08T20:33:37.676Z,3.33
2019-06-08T20:36:04.787Z,3.40
2019-06-08T20:38:38.365Z,3.00
2019-06-08T20:41:02.401Z,2.90
2019-06-08T20:43:30.387Z,3.02
2019-06-08T20:45:58.352Z,3.08
2019-06-08T20:48:27.568Z,3.40
2019-06-08T20:50:57.202Z,3.17
2019-06-08T20:53:25.279Z,3.17
2019-06-08T20:55:53.890Z,2.90
2019-06-08T20:58:22.135Z,2.67
2019-06-08T21:00:51.285Z,3.70
2019-06-08T21:03:19.673Z,4.03
2019-06-08T21:05:48.531Z,4.83
2019-06-08T21:08:17.538Z,4.62
2019-06-08T21:10:47.628Z,4.35
2019-06-08T21:13:17.807Z,4.20
2019-06-08T21:15:46.582Z,3.65
2019-06-08T21:18:14.725Z,4.00
2019-06-08T21:20:42.652Z,3.42
2019-06-08T21:23:10.686Z,2.83
2019-06-08T21:25:38.832Z,2.67
2019-06-08T21:28:07.799Z,2.70
2019-06-08T21:30:37.721Z,3.30
2019-06-08T21:33:07.703Z,3.10
2019-06-08T21:35:35.251Z,3.50
2019-06-08T21:38:03.320Z,3.22
2019-06-08T21:40:31.201Z,3.00
2019-06-08T21:43:01.128Z,2.87
2019-06-08T21:45:28.786Z,2.87
2019-06-08T21:47:59.934Z,2.72
2019-06-08T21:50:28.233Z,3.10
2019-06-08T21:52:59.063Z,3.55
2019-06-08T21:55:27.331Z,3.70
2019-06-08T21:57:59.387Z,5.90
2019-06-08T22:00:38.700Z,4.97
2019-06-08T22:02:56.473Z,4.95
2019-06-08T22:05:24.550Z,4.33
2019-06-08T22:07:52.442Z,4.62
2019-06-08T22:10:20.539Z,4.35
2019-06-08T22:12:48.680Z,4.50
2019-06-08T22:15:18.268Z,4.05
2019-06-08T22:17:47.599Z,3.67
2019-06-08T22:20:18.465Z,3.80
2019-06-08T22:22:47.284Z,4.00
2019-06-08T22:25:17.340Z,4.00
2019-06-08T22:27:44.708Z,3.90
2019-06-08T22:30:22.877Z,5.15
2019-06-08T22:32:42.476Z,5.58
2019-06-08T22:35:10.366Z,4.78
2019-06-08T22:37:38.334Z,4.22
2019-06-08T22:40:08.217Z,4.17
2019-06-08T22:42:37.427Z,3.90
2019-06-08T22:45:08.073Z,4.20
2019-06-08T22:47:35.353Z,4.47
2019-06-08T22:50:03.791Z,4.37
2019-06-08T22:52:31.886Z,4.85
2019-06-08T22:55:04.871Z,4.50
2019-06-08T22:57:29.547Z,4.67
2019-06-08T23:00:00.086Z,4.67
2019-06-08T23:02:27.851Z,4.78
2019-06-08T23:04:56.273Z,4.08
2019-06-08T23:07:29.826Z,3.80
2019-06-08T23:09:55.027Z,4.10
2019-06-08T23:12:23.446Z,3.75
2019-06-08T23:14:51.327Z,3.95
2019-06-08T23:17:19.325Z,3.60
2019-06-08T23:19:48.184Z,4.00
2019-06-08T23:22:17.712Z,4.08
2019-06-08T23:24:47.707Z,3.83
2019-06-08T23:27:17.474Z,4.00
2019-06-08T23:29:47.423Z,4.65
2019-06-08T23:32:14.757Z,4.62
2019-06-08T23:34:44.452Z,4.95
2019-06-08T23:37:13.078Z,4.30
2019-06-08T23:39:41.090Z,4.22
2019-06-08T23:42:09.109Z,3.67
2019-06-08T23:44:37.729Z,3.90
2019-06-08T23:47:06.040Z,3.20
2019-06-08T23:49:34.731Z,3.95
2019-06-08T23:52:03.875Z,4.17
2019-06-08T23:54:32.308Z,3.98
2019-06-08T23:57:01.155Z,4.03
2019-06-08T23:59:29.211Z,3.47
